Time;durP1;ratioP1;P1;durP2;ratioP2;P2;SDS_P1;SDS_P2;PMS_P1;PMS_P2;Temp;Humidity;BMP_temperature;BMP_pressure;BME280_temperature;BME280_humidity;BME280_pressure;Samples;Min_cycle;Max_cycle;Signal;HPM_P1;HPM_P2
2021/09/04 00:01:36;;;;;;;17.23;10.73;;;;;;;18.55;55.91;98096.38;8394191;28;20221;-60
2021/09/04 00:05:39;;;;;;;11.60;9.03;;;;;;;18.76;55.39;98104.41;8416152;28;20423;-61
2021/09/04 00:09:43;;;;;;;15.10;11.63;;;;;;;18.56;55.95;98099.81;8416563;28;20203;-60
2021/09/04 00:13:47;;;;;;;21.87;17.10;;;;;;;18.47;56.07;98090.03;8416252;28;20219;-60
2021/09/04 00:17:50;;;;;;;14.13;11.70;;;;;;;18.48;55.79;98084.66;8416101;28;20545;-61
2021/09/04 00:21:53;;;;;;;14.33;7.63;;;;;;;18.41;55.78;98083.47;8416054;28;20199;-61
2021/09/04 00:25:57;;;;;;;7.57;6.77;;;;;;;18.46;56.13;98088.34;8416227;28;20504;-61
2021/09/04 00:30:00;;;;;;;9.37;7.83;;;;;;;18.39;55.98;98081.91;8416014;28;20211;-61
2021/09/04 00:34:03;;;;;;;12.27;7.20;;;;;;;18.38;55.92;98088.94;8426368;28;20555;-61
2021/09/04 00:38:05;;;;;;;10.30;7.97;;;;;;;18.73;54.58;98088.91;8452814;28;20430;-61
2021/09/04 00:42:10;;;;;;;12.63;8.77;;;;;;;18.27;56.11;98081.84;8456115;28;20198;-60
2021/09/04 00:46:13;;;;;;;14.10;8.40;;;;;;;18.31;55.96;98080.66;8456290;28;20202;-60
2021/09/04 00:50:15;;;;;;;15.77;7.83;;;;;;;18.20;55.88;98085.91;8456096;28;20198;-61
2021/09/04 00:54:18;;;;;;;9.87;7.00;;;;;;;18.22;55.97;98083.13;8455987;28;20361;-61
2021/09/04 00:58:22;;;;;;;9.70;6.70;;;;;;;18.25;56.17;98081.13;8455664;28;20229;-61
2021/09/04 01:02:28;;;;;;;8.73;7.10;;;;;;;18.19;56.34;98078.97;8445137;28;20206;-61
2021/09/04 01:06:31;;;;;;;12.00;8.50;;;;;;;18.17;55.64;98078.25;8421786;28;20235;-61
2021/09/04 01:10:34;;;;;;;11.47;9.33;;;;;;;18.10;56.15;98077.03;8421590;28;20207;-61
2021/09/04 01:14:39;;;;;;;18.00;13.60;;;;;;;17.95;56.40;98081.59;8421700;28;20199;-61
2021/09/04 01:18:43;;;;;;;11.10;8.50;;;;;;;17.93;56.19;98081.72;8421498;28;20230;-60
2021/09/04 01:22:48;;;;;;;8.07;7.27;;;;;;;17.96;56.17;98080.66;8421357;28;20217;-60
2021/09/04 01:26:52;;;;;;;7.93;7.13;;;;;;;17.90;56.21;98073.25;8421238;28;20203;-60
2021/09/04 01:30:55;;;;;;;9.90;7.00;;;;;;;17.86;56.17;98072.63;8421164;28;20199;-60
2021/09/04 01:35:04;;;;;;;9.03;7.23;;;;;;;17.90;55.65;98070.63;8420900;28;20227;-60
2021/09/04 01:39:10;;;;;;;9.63;6.70;;;;;;;17.82;56.20;98065.91;8420912;28;20417;-60
2021/09/04 01:43:14;;;;;;;9.60;7.30;;;;;;;17.83;55.99;98062.34;8420747;28;20234;-60
2021/09/04 01:47:17;;;;;;;10.47;5.80;;;;;;;17.78;55.49;98054.81;8420495;28;20480;-61
2021/09/04 01:51:20;;;;;;;6.87;5.73;;;;;;;17.71;55.63;98063.22;8420435;28;20199;-61
2021/09/04 01:55:23;;;;;;;7.53;6.70;;;;;;;17.69;55.39;98059.88;8420302;28;20224;-60
2021/09/04 01:59:27;;;;;;;11.37;9.23;;;;;;;17.70;55.48;98051.06;8420410;28;20258;-61
2021/09/04 02:03:30;;;;;;;11.07;9.30;;;;;;;17.66;55.83;98047.00;8419933;28;20377;-60
2021/09/04 02:07:33;;;;;;;8.57;7.27;;;;;;;17.65;55.94;98043.56;8419960;28;20210;-61
2021/09/04 02:11:36;;;;;;;10.30;7.40;;;;;;;17.62;55.99;98046.38;8419799;28;20202;-60
2021/09/04 02:15:41;;;;;;;10.00;6.90;;;;;;;17.56;55.68;98050.28;8420024;28;20513;-60
2021/09/04 02:19:43;;;;;;;7.63;6.87;;;;;;;17.56;56.39;98041.59;8420061;28;20526;-60
2021/09/04 02:23:47;;;;;;;12.30;7.10;;;;;;;17.56;56.47;98041.59;8419416;28;20214;-60
2021/09/04 02:27:49;;;;;;;9.37;6.80;;;;;;;17.53;56.40;98034.78;8419589;28;20213;-60
2021/09/04 02:31:54;;;;;;;9.47;6.50;;;;;;;17.51;57.12;98033.22;8419503;28;20206;-60
2021/09/04 02:35:56;;;;;;;7.40;6.70;;;;;;;17.52;57.55;98037.53;8418979;28;20529;-60
2021/09/04 02:39:59;;;;;;;9.17;6.80;;;;;;;17.55;57.70;98034.69;8419158;28;20205;-60
2021/09/04 02:44:02;;;;;;;9.30;6.80;;;;;;;17.54;57.35;98038.25;8418889;28;20206;-60
2021/09/04 02:48:07;;;;;;;8.73;6.47;;;;;;;17.40;56.33;98041.84;8418641;28;20207;-60
2021/09/04 02:52:10;;;;;;;8.53;6.30;;;;;;;17.34;56.19;98037.91;8418618;28;20407;-60
2021/09/04 02:56:13;;;;;;;8.70;6.20;;;;;;;17.33;55.72;98036.22;8418296;28;20233;-60
2021/09/04 03:00:16;;;;;;;7.73;6.43;;;;;;;17.29;56.19;98028.69;8417637;28;20205;-60
2021/09/04 03:04:20;;;;;;;7.63;6.03;;;;;;;17.29;55.73;98037.38;8418062;28;20233;-60
2021/09/04 03:08:23;;;;;;;6.53;5.53;;;;;;;17.27;55.78;98041.88;8417808;28;20214;-60
2021/09/04 03:12:25;;;;;;;7.07;5.70;;;;;;;17.17;55.86;98043.47;8417909;28;20199;-60
2021/09/04 03:16:28;;;;;;;6.20;5.60;;;;;;;17.20;55.60;98041.47;8417670;28;20227;-60
2021/09/04 03:20:33;;;;;;;5.33;4.80;;;;;;;17.08;55.16;98033.66;8417544;28;20304;-60
2021/09/04 03:24:36;;;;;;;5.97;5.27;;;;;;;17.12;55.31;98040.34;8417726;28;20199;-60
2021/09/04 03:28:39;;;;;;;7.53;5.60;;;;;;;17.02;55.73;98044.53;8417675;28;20226;-60
2021/09/04 03:32:42;;;;;;;7.57;5.60;;;;;;;17.03;55.42;98046.22;8417171;28;20222;-60
2021/09/04 03:36:46;;;;;;;9.13;5.70;;;;;;;17.04;55.15;98042.66;8416880;28;20235;-60
2021/09/04 03:40:49;;;;;;;5.97;5.37;;;;;;;17.00;55.39;98039.41;8417091;28;20203;-60
2021/09/04 03:44:52;;;;;;;7.90;5.87;;;;;;;16.89;55.06;98039.34;8416931;28;20524;-60
2021/09/04 03:48:59;;;;;;;7.80;5.40;;;;;;;16.89;55.10;98039.34;8416756;28;20368;-60
2021/09/04 03:53:03;;;;;;;8.37;6.40;;;;;;;16.81;55.18;98038.06;8416921;28;20458;-60
2021/09/04 03:57:06;;;;;;;7.27;5.77;;;;;;;16.73;55.17;98034.28;8416614;28;20521;-60
2021/09/04 04:01:09;;;;;;;9.80;5.83;;;;;;;16.79;55.02;98039.06;8416522;28;20199;-60
2021/09/04 04:05:15;;;;;;;7.23;5.30;;;;;;;16.70;55.07;98034.50;8416364;28;20349;-60
2021/09/04 04:09:19;;;;;;;9.33;5.60;;;;;;;16.73;54.95;98032.47;8416332;28;20203;-60
2021/09/04 04:13:22;;;;;;;6.47;5.40;;;;;;;16.69;55.13;98036.25;8415443;28;20202;-60
2021/09/04 04:17:25;;;;;;;6.10;5.57;;;;;;;16.63;55.42;98041.09;8416202;28;20227;-60
2021/09/04 04:21:28;;;;;;;6.27;5.37;;;;;;;16.66;55.32;98039.09;8416178;28;20506;-60
2021/09/04 04:25:32;;;;;;;5.87;5.10;;;;;;;16.62;55.69;98040.25;8416227;28;20199;-60
2021/09/04 04:29:35;;;;;;;8.87;6.10;;;;;;;16.54;55.97;98040.75;8416035;28;20203;-60
2021/09/04 04:33:38;;;;;;;10.23;6.23;;;;;;;16.52;56.02;98047.03;8415823;28;20223;-60
2021/09/04 04:37:40;;;;;;;12.57;6.80;;;;;;;16.54;56.28;98045.97;8415833;28;20525;-60
2021/09/04 04:41:45;;;;;;;8.10;6.80;;;;;;;16.52;56.48;98050.47;8415884;28;20199;-60
2021/09/04 04:45:47;;;;;;;11.53;7.10;;;;;;;16.51;56.65;98051.41;8415761;28;20199;-60
2021/09/04 04:49:50;;;;;;;11.60;6.77;;;;;;;16.53;56.70;98039.09;8415574;28;20209;-60
2021/09/04 04:53:53;;;;;;;9.73;6.63;;;;;;;16.52;56.23;98041.78;8415719;28;20199;-60
2021/09/04 04:57:58;;;;;;;8.13;6.40;;;;;;;16.55;55.91;98036.38;8415462;28;20222;-60
2021/09/04 05:02:04;;;;;;;6.93;6.20;;;;;;;16.48;55.97;98045.56;8415465;28;20225;-60
2021/09/04 05:06:07;;;;;;;9.20;6.27;;;;;;;16.49;55.99;98042.84;8415329;28;20231;-60
2021/09/04 05:10:11;;;;;;;9.67;6.80;;;;;;;16.50;56.10;98052.34;8415254;28;20210;-60
2021/09/04 05:14:18;;;;;;;13.00;7.57;;;;;;;16.50;55.94;98060.19;8415368;28;20199;-60
2021/09/04 05:18:20;;;;;;;10.77;7.27;;;;;;;16.54;55.83;98061.66;8415129;28;20223;-60
2021/09/04 05:22:23;;;;;;;12.33;7.57;;;;;;;16.56;56.01;98064.16;8416669;28;20383;-60
2021/09/04 05:26:26;;;;;;;11.90;6.37;;;;;;;16.67;55.39;98066.06;8421369;28;20206;-60
2021/09/04 05:30:30;;;;;;;10.97;6.80;;;;;;;16.74;55.59;98062.94;8411923;28;20267;-60
2021/09/04 05:34:38;;;;;;;8.73;6.40;;;;;;;16.98;55.21;98063.06;8403518;28;20211;-60
2021/09/04 05:38:40;;;;;;;10.97;7.70;;;;;;;17.11;54.96;98062.22;8403362;28;20320;-61
2021/09/04 05:42:43;;;;;;;8.80;7.47;;;;;;;17.29;55.12;98068.78;8403399;28;20229;-61
2021/09/04 05:46:47;;;;;;;8.63;7.40;;;;;;;17.49;54.95;98069.16;8401673;28;20208;-60
2021/09/04 05:50:50;;;;;;;10.43;7.00;;;;;;;17.57;54.74;98064.19;8403062;28;20200;-60
2021/09/04 05:54:53;;;;;;;8.10;7.27;;;;;;;17.71;54.68;98068.47;8402330;28;20210;-61
2021/09/04 05:58:56;;;;;;;9.40;7.03;;;;;;;17.90;54.41;98063.59;8402733;28;20226;-61
2021/09/04 06:03:00;;;;;;;7.83;6.63;;;;;;;17.96;54.68;98064.94;8403954;28;20196;-61
2021/09/04 06:07:03;;;;;;;8.33;6.70;;;;;;;18.06;54.76;98075.56;8402463;28;20251;-62
2021/09/04 06:11:07;;;;;;;7.13;5.93;;;;;;;18.27;54.22;98065.28;8405196;28;20198;-61
2021/09/04 06:15:10;;;;;;;10.07;6.30;;;;;;;18.50;54.24;98074.06;8402393;28;20191;-61
2021/09/04 06:19:15;;;;;;;7.23;6.20;;;;;;;18.68;54.16;98079.72;8401967;28;20215;-61
2021/09/04 06:23:17;;;;;;;8.33;6.63;;;;;;;18.81;53.61;98063.91;8402029;28;20198;-61
2021/09/04 06:27:20;;;;;;;8.40;6.87;;;;;;;18.86;54.18;98067.84;8406434;28;20210;-61
2021/09/04 06:31:23;;;;;;;8.60;6.93;;;;;;;19.11;53.91;98072.06;8398090;28;20195;-62
2021/09/04 06:35:27;;;;;;;10.67;6.93;;;;;;;19.31;53.85;98074.91;8400605;28;20211;-61
2021/09/04 06:39:30;;;;;;;8.10;6.33;;;;;;;19.40;54.11;98083.84;8408073;28;20229;-61
2021/09/04 06:43:33;;;;;;;8.87;7.03;;;;;;;19.32;54.61;98080.03;8403631;28;20226;-62
2021/09/04 06:47:36;;;;;;;8.57;6.10;;;;;;;19.72;54.27;98076.06;8385967;28;20425;-61
2021/09/04 06:51:40;;;;;;;9.70;7.60;;;;;;;19.66;53.92;98084.41;8385403;28;20207;-61
2021/09/04 06:55:43;;;;;;;9.10;6.67;;;;;;;19.97;52.58;98087.22;8385107;28;20200;-61
2021/09/04 06:59:46;;;;;;;9.87;6.83;;;;;;;20.11;52.65;98086.94;8385440;28;20232;-61
2021/09/04 07:03:48;;;;;;;8.93;6.80;;;;;;;20.31;52.59;98077.41;8406305;28;20235;-61
2021/09/04 07:07:53;;;;;;;7.77;6.67;;;;;;;20.36;52.20;98080.50;8418277;28;20209;-61
2021/09/04 07:11:55;;;;;;;8.23;6.67;;;;;;;20.62;51.11;98075.75;8417978;28;20365;-62
2021/09/04 07:15:58;;;;;;;8.27;7.40;;;;;;;20.52;51.21;98085.31;8417872;28;20199;-61
2021/09/04 07:20:01;;;;;;;8.53;7.00;;;;;;;20.62;51.06;98085.41;8417686;28;20234;-62
2021/09/04 07:24:06;;;;;;;7.93;7.20;;;;;;;20.80;50.87;98088.31;8417540;28;20200;-61
2021/09/04 07:28:09;;;;;;;11.00;7.13;;;;;;;20.98;50.54;98078.84;8417409;28;20226;-61
2021/09/04 07:32:12;;;;;;;8.00;6.97;;;;;;;20.95;49.94;98083.56;8417310;28;20384;-61
2021/09/04 07:36:15;;;;;;;8.37;6.73;;;;;;;21.20;50.18;98077.00;8417344;28;20265;-61
2021/09/04 07:40:19;;;;;;;9.53;6.80;;;;;;;21.25;49.96;98080.09;8416924;28;20372;-62
2021/09/04 07:44:22;;;;;;;10.03;6.63;;;;;;;21.57;48.62;98093.13;8416771;28;20200;-61
2021/09/04 07:48:25;;;;;;;8.17;6.30;;;;;;;21.92;47.83;98096.25;8416818;28;20204;-61
2021/09/04 07:52:28;;;;;;;7.63;6.13;;;;;;;22.28;47.29;98093.97;8416982;28;20206;-62
2021/09/04 07:56:32;;;;;;;9.93;6.80;;;;;;;22.07;47.67;98097.50;8416343;28;20203;-61
2021/09/04 08:00:35;;;;;;;10.47;7.30;;;;;;;21.73;48.13;98099.69;8416099;28;20534;-61
2021/09/04 08:04:38;;;;;;;13.47;7.60;;;;;;;21.72;49.29;98095.38;8416317;28;20233;-61
2021/09/04 08:08:41;;;;;;;8.87;6.77;;;;;;;22.18;48.29;98101.81;8416360;28;20212;-61
2021/09/04 08:12:46;;;;;;;7.93;6.30;;;;;;;22.34;47.36;98098.66;8416310;28;20199;-61
2021/09/04 08:16:48;;;;;;;10.90;7.77;;;;;;;22.52;47.60;98099.59;8416162;28;20207;-61
2021/09/04 08:20:51;;;;;;;7.93;6.73;;;;;;;22.71;47.89;98101.38;8416087;28;20421;-61
2021/09/04 08:24:54;;;;;;;8.53;6.80;;;;;;;22.84;46.67;98104.56;8416350;28;20223;-61
2021/09/04 08:28:58;;;;;;;19.13;6.73;;;;;;;23.05;46.76;98100.09;8416001;28;20204;-61
2021/09/04 08:33:06;;;;;;;8.43;7.03;;;;;;;23.19;45.42;98095.19;8415579;28;20261;-61
2021/09/04 08:37:09;;;;;;;11.73;6.80;;;;;;;23.60;45.46;98098.34;8415344;28;20202;-61
2021/09/04 08:41:12;;;;;;;10.90;7.13;;;;;;;23.67;44.67;98103.06;8415659;28;20226;-61
2021/09/04 08:45:16;;;;;;;11.70;7.63;;;;;;;23.61;44.49;98102.66;8403451;28;20478;-61
2021/09/04 08:49:19;;;;;;;11.27;7.93;;;;;;;24.14;44.21;98102.91;8398511;28;20208;-61
2021/09/04 08:53:27;;;;;;;14.70;7.93;;;;;;;24.58;43.60;98103.00;8388913;28;20195;-61
2021/09/04 08:57:30;;;;;;;9.63;7.40;;;;;;;24.74;42.71;98100.47;8384047;28;20207;-61
2021/09/04 09:01:34;;;;;;;9.77;7.53;;;;;;;24.91;43.02;98105.88;8394329;28;20232;-61
2021/09/04 09:05:39;;;;;;;9.90;7.30;;;;;;;25.23;42.10;98099.97;8401701;28;20226;-61
2021/09/04 09:09:42;;;;;;;8.93;7.47;;;;;;;25.58;41.15;98100.78;8407105;28;20206;-62
2021/09/04 09:13:49;;;;;;;8.23;7.10;;;;;;;25.84;40.30;98099.88;8416311;28;20199;-61
2021/09/04 09:17:59;;;;;;;8.67;7.50;;;;;;;25.98;39.61;98098.44;8416777;28;20199;-62
2021/09/04 09:22:12;;;;;;;13.30;7.60;;;;;;;26.15;40.11;98097.47;8403737;28;20227;-62
2021/09/04 09:26:15;;;;;;;9.73;7.40;;;;;;;26.27;38.94;98090.03;8403681;28;20197;-62
2021/09/04 09:30:31;;;;;;;8.33;7.43;;;;;;;26.45;38.53;98095.19;8403046;28;20387;-62
2021/09/04 09:34:38;;;;;;;6.60;5.90;;;;;;;26.61;37.30;98095.19;8401892;28;20211;-61
2021/09/04 09:38:45;;;;;;;7.93;6.30;;;;;;;26.85;37.51;98082.91;8412398;28;20235;-61
2021/09/04 09:42:48;;;;;;;9.80;6.70;;;;;;;27.00;37.63;98089.19;8402769;28;20192;-61
2021/09/04 09:46:52;;;;;;;12.00;5.60;;;;;;;27.19;38.05;98087.97;8397331;28;20198;-61
2021/09/04 09:50:59;;;;;;;8.00;7.20;;;;;;;27.11;35.20;98085.31;8407985;28;20267;-61
2021/09/04 09:55:02;;;;;;;8.07;5.97;;;;;;;27.24;36.99;98084.78;8402751;28;20194;-61
2021/09/04 09:59:05;;;;;;;7.80;5.40;;;;;;;27.49;36.61;98090.88;8392174;28;20221;-61
2021/09/04 10:03:11;;;;;;;9.13;5.50;;;;;;;27.77;36.87;98090.41;8402880;28;20222;-61
2021/09/04 10:07:17;;;;;;;8.47;6.10;;;;;;;27.27;35.15;98085.31;8420016;28;20241;-63
2021/09/04 10:11:20;;;;;;;6.30;5.53;;;;;;;27.68;34.97;98086.97;8418795;28;20547;-63
2021/09/04 10:15:29;;;;;;;6.63;5.20;;;;;;;28.00;35.32;98083.31;8419589;28;20207;-63
2021/09/04 10:19:33;;;;;;;8.63;6.00;;;;;;;27.73;34.44;98087.28;8419376;28;20228;-63
2021/09/04 10:23:40;;;;;;;13.33;5.20;;;;;;;27.96;33.50;98089.19;8419816;28;20387;-63
2021/09/04 10:27:44;;;;;;;6.80;5.00;;;;;;;27.77;33.32;98072.63;8419537;28;20212;-63
2021/09/04 10:31:55;;;;;;;8.10;4.77;;;;;;;28.06;32.94;98079.13;8419304;28;20206;-63
2021/09/04 10:35:58;;;;;;;7.07;5.00;;;;;;;27.92;33.43;98080.72;8419290;28;20235;-64
2021/09/04 10:40:07;;;;;;;5.13;4.33;;;;;;;28.02;32.66;98077.81;8419049;28;20249;-63
2021/09/04 10:44:11;;;;;;;5.83;4.40;;;;;;;28.05;32.53;98066.81;8418839;28;20228;-64
2021/09/04 10:48:15;;;;;;;10.83;4.50;;;;;;;28.27;34.14;98063.34;8418632;28;20211;-64
2021/09/04 10:52:17;;;;;;;5.63;4.10;;;;;;;28.54;32.12;98063.81;8418631;28;20211;-64
2021/09/04 10:56:23;;;;;;;8.87;4.47;;;;;;;28.45;31.53;98057.69;8418814;28;20200;-63
2021/09/04 11:00:26;;;;;;;7.43;4.50;;;;;;;28.54;32.24;98057.63;8418586;28;20231;-64
2021/09/04 11:04:38;;;;;;;6.53;4.93;;;;;;;28.42;31.37;98051.88;8417916;28;20319;-63
2021/09/04 11:08:45;;;;;;;6.43;4.53;;;;;;;28.54;32.05;98045.16;8418231;28;20387;-64
2021/09/04 11:13:05;;;;;;;5.13;4.63;;;;;;;28.82;32.15;98039.22;8415003;28;20398;-64
2021/09/04 11:17:17;;;;;;;5.50;4.00;;;;;;;28.98;30.47;98035.56;8400334;28;20192;-63
2021/09/04 11:21:20;;;;;;;18.97;4.57;;;;;;;28.90;30.43;98033.81;8399825;28;20245;-64
2021/09/04 11:25:24;;;;;;;6.77;3.80;;;;;;;29.01;29.83;98040.50;8400229;28;20213;-64
2021/09/04 11:29:34;;;;;;;7.70;4.30;;;;;;;29.15;30.19;98033.53;8399963;28;20198;-64
2021/09/04 11:33:37;;;;;;;4.57;4.07;;;;;;;29.02;29.58;98028.84;8386573;28;20249;-64
2021/09/04 11:37:40;;;;;;;5.80;3.80;;;;;;;28.95;29.71;98030.59;8386210;28;20524;-64
2021/09/04 11:41:46;;;;;;;4.60;3.80;;;;;;;28.94;29.07;98024.44;8388206;28;20221;-67
2021/09/04 11:46:00;;;;;;;5.10;4.27;;;;;;;29.02;29.89;98020.84;8399633;28;20510;-64
2021/09/04 11:50:04;;;;;;;5.37;4.33;;;;;;;28.90;29.16;98027.63;8399474;28;20267;-64
2021/09/04 11:54:08;;;;;;;3.83;3.40;;;;;;;28.96;28.33;98029.56;8399300;28;20260;-64
2021/09/04 11:58:12;;;;;;;4.10;3.70;;;;;;;28.98;29.01;98031.06;8399463;28;20194;-64
2021/09/04 12:02:16;;;;;;;4.60;3.80;;;;;;;29.28;28.14;98027.56;8400811;28;20223;-63
2021/09/04 12:06:19;;;;;;;4.60;4.00;;;;;;;29.45;28.24;98023.66;8385821;28;20444;-63
2021/09/04 12:10:24;;;;;;;5.43;4.13;;;;;;;29.57;28.83;98018.69;8398905;28;20408;-63
2021/09/04 12:14:30;;;;;;;6.40;4.00;;;;;;;29.48;29.96;98025.97;8398836;28;20195;-64
2021/09/04 12:18:35;;;;;;;5.73;4.00;;;;;;;29.14;28.28;98027.38;8396990;28;20487;-64
2021/09/04 12:22:38;;;;;;;5.00;4.33;;;;;;;29.33;29.03;98014.50;8410577;28;20217;-64
2021/09/04 12:26:50;;;;;;;4.40;4.00;;;;;;;29.28;28.86;98017.72;8395987;28;20195;-63
2021/09/04 12:30:58;;;;;;;4.53;4.13;;;;;;;29.24;28.33;98019.09;8382527;28;20207;-63
2021/09/04 12:35:02;;;;;;;4.90;4.27;;;;;;;29.09;28.57;98020.91;8382204;28;20288;-64
2021/09/04 12:39:18;;;;;;;7.03;4.50;;;;;;;28.89;29.69;98021.50;8382599;28;20207;-63
2021/09/04 12:43:25;;;;;;;5.23;4.70;;;;;;;28.73;28.59;98019.00;8382482;28;20230;-63
2021/09/04 12:47:41;;;;;;;4.83;4.30;;;;;;;28.92;28.68;98001.63;8382633;28;20202;-64
2021/09/04 12:51:45;;;;;;;5.57;3.97;;;;;;;29.33;29.14;98007.31;8382558;28;20203;-64
2021/09/04 12:55:50;;;;;;;6.87;4.67;;;;;;;29.14;30.40;98007.91;8382558;28;20213;-63
2021/09/04 12:59:54;;;;;;;4.83;4.30;;;;;;;29.55;30.04;97994.00;8395191;28;20432;-63
2021/09/04 13:03:57;;;;;;;6.40;4.33;;;;;;;29.62;29.79;97994.91;8407100;28;20251;-63
2021/09/04 13:08:03;;;;;;;4.87;4.40;;;;;;;29.40;28.58;97991.41;8415488;28;20233;-63
2021/09/04 13:12:08;;;;;;;4.90;3.90;;;;;;;29.50;29.12;97991.91;8415596;28;20211;-63
2021/09/04 13:16:11;;;;;;;5.87;4.07;;;;;;;29.53;28.43;97991.56;8415231;28;20313;-63
2021/09/04 13:20:15;;;;;;;5.93;4.43;;;;;;;29.32;29.39;97984.34;8415095;28;20229;-63
2021/09/04 13:24:19;;;;;;;6.13;3.93;;;;;;;29.50;30.35;97983.91;8415023;28;20210;-63
2021/09/04 13:28:22;;;;;;;5.03;4.40;;;;;;;29.13;28.52;97977.75;8415041;28;20213;-63
2021/09/04 13:32:25;;;;;;;4.90;4.37;;;;;;;29.07;27.42;97983.78;8414755;28;20374;-63
2021/09/04 13:36:28;;;;;;;5.60;3.80;;;;;;;29.18;28.74;97978.00;8414660;28;20210;-62
2021/09/04 13:40:32;;;;;;;6.57;3.90;;;;;;;28.58;29.69;97979.03;8414769;28;20234;-63
2021/09/04 13:44:35;;;;;;;4.47;3.73;;;;;;;28.51;28.97;97970.09;8418232;28;20206;-63
2021/09/04 13:48:37;;;;;;;4.23;3.77;;;;;;;28.97;28.47;97962.75;8420788;28;20361;-63
2021/09/04 13:52:40;;;;;;;4.23;3.80;;;;;;;29.15;28.04;97967.72;8420536;28;20216;-63
2021/09/04 13:56:45;;;;;;;5.10;3.80;;;;;;;29.13;28.11;97968.91;8420438;28;20380;-63
2021/09/04 14:00:48;;;;;;;5.30;3.40;;;;;;;29.34;28.51;97962.81;8420227;28;20229;-63
2021/09/04 14:04:51;;;;;;;4.00;3.50;;;;;;;29.42;28.64;97963.53;8420263;28;20479;-63
2021/09/04 14:08:54;;;;;;;3.60;3.30;;;;;;;29.56;28.88;97953.00;8420142;28;20199;-63
2021/09/04 14:12:59;;;;;;;4.03;3.63;;;;;;;29.64;29.16;97950.19;8419817;28;20206;-63
2021/09/04 14:17:02;;;;;;;5.10;3.90;;;;;;;29.52;29.15;97938.38;8419827;28;20203;-64
2021/09/04 14:21:07;;;;;;;6.63;4.10;;;;;;;29.32;28.90;97940.81;8419641;28;20223;-65
2021/09/04 14:25:11;;;;;;;6.07;3.93;;;;;;;29.20;28.74;97945.81;8419663;28;20214;-65
2021/09/04 14:29:17;;;;;;;8.90;4.30;;;;;;;29.02;29.59;97943.53;8419490;28;20368;-65
2021/09/04 14:33:21;;;;;;;6.53;4.27;;;;;;;28.66;29.20;97931.81;8419023;28;20217;-65
2021/09/04 14:37:24;;;;;;;4.77;4.03;;;;;;;28.74;28.94;97932.72;8419220;28;20201;-68
2021/09/04 14:41:27;;;;;;;6.07;4.27;;;;;;;28.87;29.41;97926.75;8418994;28;20416;-67
2021/09/04 14:45:31;;;;;;;7.80;4.30;;;;;;;28.54;28.98;97925.31;8418963;28;20395;-68
2021/09/04 14:49:34;;;;;;;7.27;4.10;;;;;;;28.36;29.74;97919.47;8418828;28;20206;-68
2021/09/04 14:53:37;;;;;;;4.53;4.13;;;;;;;28.70;29.45;97918.13;8418663;28;20519;-70
2021/09/04 14:57:39;;;;;;;5.57;4.20;;;;;;;28.83;29.55;97920.97;8417644;28;20242;-64
2021/09/04 15:01:43;;;;;;;4.77;3.57;;;;;;;28.82;29.95;97921.97;8418077;28;20230;-70
2021/09/04 15:05:47;;;;;;;4.10;3.70;;;;;;;28.62;30.25;97914.53;8418239;28;20430;-62
2021/09/04 15:09:49;;;;;;;4.67;4.03;;;;;;;28.42;29.71;97911.56;8417813;28;20456;-65
2021/09/04 15:13:53;;;;;;;6.37;3.83;;;;;;;28.35;29.55;97905.34;8418036;28;20281;-60
2021/09/04 15:17:57;;;;;;;4.50;4.10;;;;;;;28.23;29.78;97904.94;8417882;28;20515;-57
2021/09/04 15:22:00;;;;;;;5.10;4.27;;;;;;;28.10;29.85;97902.06;8417686;28;20223;-63
2021/09/04 15:26:03;;;;;;;7.00;4.37;;;;;;;28.02;31.57;97905.63;8416458;28;20201;-58
2021/09/04 15:30:07;;;;;;;6.23;4.00;;;;;;;27.94;31.34;97907.56;8417011;28;20227;-58
2021/09/04 15:34:11;;;;;;;5.00;4.17;;;;;;;27.87;31.99;97902.94;8416978;28;20226;-58
2021/09/04 15:38:17;;;;;;;7.93;5.30;;;;;;;27.82;31.42;97902.63;8417244;28;20209;-66
2021/09/04 15:42:19;;;;;;;7.63;4.43;;;;;;;27.56;31.18;97907.50;8416211;28;20235;-60
2021/09/04 15:46:22;;;;;;;7.63;6.83;;;;;;;27.27;31.24;97903.72;8413848;28;20200;-60
2021/09/04 15:50:27;;;;;;;10.23;8.97;;;;;;;27.26;31.30;97891.41;8414889;28;20202;-64
2021/09/04 15:54:31;;;;;;;6.47;5.20;;;;;;;26.99;32.58;97896.19;8417209;28;20212;-61
2021/09/04 15:58:34;;;;;;;4.80;4.03;;;;;;;27.02;33.15;97901.16;8416548;28;20271;-62
2021/09/04 16:02:38;;;;;;;32.03;5.70;;;;;;;26.98;34.17;97896.34;8416276;28;20234;-62
2021/09/04 16:06:43;;;;;;;27.43;20.20;;;;;;;26.84;33.68;97897.94;8416102;28;20239;-62
2021/09/04 16:10:45;;;;;;;1999.90;999.90;;;;;;;26.80;33.85;97899.28;8416520;28;20203;-62
2021/09/04 16:14:48;;;;;;;331.80;295.43;;;;;;;26.82;33.96;97892.78;8416310;28;20309;-62
2021/09/04 16:18:51;;;;;;;51.73;41.87;;;;;;;26.81;33.68;97892.97;8416186;28;20199;-62
2021/09/04 16:22:55;;;;;;;11.57;8.30;;;;;;;26.78;33.09;97894.13;8416020;28;20256;-61
2021/09/04 16:26:58;;;;;;;9.63;5.43;;;;;;;26.83;33.76;97885.66;8415948;28;20202;-62
2021/09/04 16:31:01;;;;;;;6.33;4.43;;;;;;;26.59;34.97;97891.88;8416054;28;20201;-62
2021/09/04 16:35:06;;;;;;;310.53;287.93;;;;;;;26.65;36.04;97901.81;8415848;28;20398;-61
2021/09/04 16:39:10;;;;;;;254.47;232.47;;;;;;;26.61;35.74;97900.50;8415784;28;20288;-61
2021/09/04 16:43:13;;;;;;;1999.90;999.90;;;;;;;27.35;38.99;97901.00;8415716;28;20229;-61
2021/09/04 16:47:15;;;;;;;1999.90;999.90;;;;;;;27.77;36.47;97894.34;8415690;28;20208;-61
2021/09/04 16:51:18;;;;;;;1083.10;864.97;;;;;;;27.07;35.62;97898.81;8415922;28;20615;-61
2021/09/04 16:55:22;;;;;;;336.37;300.10;;;;;;;26.83;36.08;97897.09;8415667;28;20199;-61
2021/09/04 16:59:25;;;;;;;106.47;87.27;;;;;;;26.66;36.92;97895.53;8415737;28;20209;-61
2021/09/04 17:03:28;;;;;;;13.30;11.90;;;;;;;26.55;37.03;97896.69;8415040;28;20224;-61
2021/09/04 17:07:31;;;;;;;11.03;6.20;;;;;;;26.37;37.43;97896.06;8415743;28;20226;-61
2021/09/04 17:11:35;;;;;;;7.40;5.57;;;;;;;26.21;37.85;97892.47;8415515;28;20203;-61
2021/09/04 17:15:38;;;;;;;16.00;6.17;;;;;;;26.06;38.12;97902.94;8415261;28;20206;-61
2021/09/04 17:19:41;;;;;;;17.17;5.23;;;;;;;25.92;38.83;97899.13;8418808;28;20479;-61
2021/09/04 17:23:48;;;;;;;35.83;5.80;;;;;;;25.75;39.04;97906.25;8421575;28;20541;-61
2021/09/04 17:27:55;;;;;;;17.67;5.40;;;;;;;25.67;38.80;97903.59;8421398;28;20204;-61
2021/09/04 17:31:58;;;;;;;10.73;6.70;;;;;;;25.52;38.82;97899.94;8421181;28;20211;-61
2021/09/04 17:36:01;;;;;;;52.13;45.53;;;;;;;25.41;39.75;97906.38;8421093;28;20219;-61
2021/09/04 17:40:05;;;;;;;98.63;88.20;;;;;;;25.30;41.16;97910.19;8420863;28;20498;-61
2021/09/04 17:44:11;;;;;;;90.10;54.40;;;;;;;25.16;42.66;97910.78;8420205;28;20530;-63
2021/09/04 17:48:14;;;;;;;12.30;11.13;;;;;;;25.07;43.32;97911.75;8387744;28;20381;-62
2021/09/04 17:52:17;;;;;;;6.33;5.20;;;;;;;24.95;44.23;97908.56;8387474;28;20517;-61
2021/09/04 17:56:34;;;;;;;7.80;4.57;;;;;;;24.84;43.91;97919.44;8395667;28;20205;-61
2021/09/04 18:00:38;;;;;;;7.30;4.50;;;;;;;24.72;43.95;97918.91;8402901;28;20249;-61
2021/09/04 18:04:41;;;;;;;5.83;5.20;;;;;;;24.59;44.41;97925.47;8398462;28;20240;-60
2021/09/04 18:08:46;;;;;;;6.07;4.70;;;;;;;24.49;44.53;97929.19;8397739;28;20191;-61
2021/09/04 18:12:48;;;;;;;5.63;4.47;;;;;;;24.38;45.14;97933.75;8402567;28;20195;-61
2021/09/04 18:16:53;;;;;;;7.47;4.83;;;;;;;24.26;45.83;97940.31;8402516;28;20513;-61
2021/09/04 18:20:56;;;;;;;5.93;4.40;;;;;;;24.15;46.43;97957.25;8402350;28;20224;-60
2021/09/04 18:24:59;;;;;;;6.57;5.33;;;;;;;24.06;46.29;97962.63;8411593;28;20222;-60
2021/09/04 18:29:02;;;;;;;9.57;6.23;;;;;;;24.21;45.88;97961.09;8414997;28;20434;-60
2021/09/04 18:33:06;;;;;;;10.87;5.77;;;;;;;23.96;46.25;97973.31;8401324;28;20214;-60
2021/09/04 18:37:09;;;;;;;11.03;5.60;;;;;;;23.89;46.75;97981.00;8401737;28;20198;-59
2021/09/04 18:41:12;;;;;;;6.97;5.80;;;;;;;23.80;47.38;97989.88;8401630;28;20205;-60
2021/09/04 18:45:15;;;;;;;6.97;5.63;;;;;;;23.72;48.04;97992.38;8401429;28;20219;-60
2021/09/04 18:49:21;;;;;;;8.80;6.23;;;;;;;23.59;48.78;97993.59;8401395;28;20204;-60
2021/09/04 18:53:24;;;;;;;7.30;6.40;;;;;;;23.49;49.11;97999.91;8404746;28;20486;-59
2021/09/04 18:57:27;;;;;;;8.73;6.63;;;;;;;23.37;49.55;98007.22;8418625;28;20201;-59
2021/09/04 19:01:30;;;;;;;16.20;7.23;;;;;;;23.23;49.83;98011.22;8418228;28;20203;-59